Time;durP1;ratioP1;P1;durP2;ratioP2;P2;SDS_P1;SDS_P2;PMS_P1;PMS_P2;Temp;Humidity;BMP_temperature;BMP_pressure;BME280_temperature;BME280_humidity;BME280_pressure;Samples;Min_cycle;Max_cycle;Signal;HPM_P1;HPM_P2
2023/01/14 00:00:25;;;;;;;54.43;26.93;;;0.60;99.90;;;;;;4227030;28;20320;-54
2023/01/14 00:02:26;;;;;;;52.90;25.97;;;0.60;99.90;;;;;;4227249;28;20272;-61
2023/01/14 00:04:27;;;;;;;50.93;25.37;;;0.50;99.90;;;;;;4225523;28;20303;-60
2023/01/14 00:06:31;;;;;;;48.93;26.20;;;0.50;99.90;;;;;;4226720;28;20280;-61
2023/01/14 00:08:34;;;;;;;47.40;24.23;;;0.40;99.90;;;;;;4228302;28;20268;-61
2023/01/14 00:10:37;;;;;;;49.60;23.93;;;0.40;99.90;;;;;;4229823;28;20342;-60
2023/01/14 00:12:38;;;;;;;45.43;22.43;;;0.50;99.90;;;;;;4230727;28;20352;-60
2023/01/14 00:14:39;;;;;;;56.20;27.70;;;0.50;99.90;;;;;;4229463;28;20268;-59
2023/01/14 00:16:40;;;;;;;54.27;27.40;;;0.60;99.90;;;;;;4230377;28;20751;-59
2023/01/14 00:18:42;;;;;;;47.93;25.93;;;0.60;99.90;;;;;;4229687;28;20295;-62
2023/01/14 00:20:43;;;;;;;61.23;28.10;;;0.70;99.90;;;;;;4230800;28;20256;-59
2023/01/14 00:22:44;;;;;;;53.03;26.13;;;0.70;99.90;;;;;;4228529;28;20260;-60
2023/01/14 00:24:47;;;;;;;63.97;30.07;;;0.80;99.90;;;;;;4230953;28;20264;-61
2023/01/14 00:26:53;;;;;;;73.33;34.83;;;0.80;99.90;;;;;;4229397;28;20305;-61
2023/01/14 00:28:54;;;;;;;69.93;32.73;;;0.70;99.90;;;;;;4230624;28;20767;-62
2023/01/14 00:31:22;;;;;;;75.10;32.53;;;0.70;99.90;;;;;;4228952;28;20289;-61
2023/01/14 00:33:24;;;;;;;101.47;34.17;;;0.60;99.90;;;;;;4225792;28;20329;-61
2023/01/14 00:35:25;;;;;;;94.60;36.43;;;0.60;99.90;;;;;;4229435;28;20272;-62
2023/01/14 00:37:26;;;;;;;95.87;39.17;;;0.60;99.90;;;;;;4230124;28;20297;-61
2023/01/14 00:39:27;;;;;;;103.47;43.63;;;0.60;99.90;;;;;;4228885;28;20276;-62
2023/01/14 00:41:28;;;;;;;67.77;32.00;;;0.60;99.90;;;;;;4229490;28;20755;-60
2023/01/14 00:43:30;;;;;;;63.40;29.73;;;0.50;99.90;;;;;;4229790;28;20268;-59
2023/01/14 00:45:31;;;;;;;64.17;27.83;;;0.50;99.90;;;;;;4229544;28;20264;-61
2023/01/14 00:47:32;;;;;;;57.33;26.53;;;0.50;99.90;;;;;;4230239;28;20313;-60
2023/01/14 00:49:33;;;;;;;62.17;26.17;;;0.50;99.90;;;;;;4229297;28;20809;-59
2023/01/14 00:51:34;;;;;;;56.63;26.63;;;0.60;99.90;;;;;;4230474;28;20272;-60
2023/01/14 00:53:37;;;;;;;64.77;27.27;;;0.60;99.90;;;;;;4229181;28;20305;-59
2023/01/14 00:55:38;;;;;;;67.87;32.03;;;0.60;99.90;;;;;;4229934;28;20264;-63
2023/01/14 00:57:39;;;;;;;72.63;31.43;;;0.70;99.90;;;;;;4229173;28;20260;-61
2023/01/14 00:59:40;;;;;;;72.53;31.87;;;0.60;99.90;;;;;;4230085;28;20781;-61
2023/01/14 01:01:41;;;;;;;71.27;31.63;;;0.60;99.90;;;;;;4228993;28;20280;-61
2023/01/14 01:03:46;;;;;;;78.57;31.80;;;0.60;99.90;;;;;;4230394;28;20728;-62
2023/01/14 01:05:47;;;;;;;74.73;30.33;;;0.60;99.90;;;;;;4229261;28;20318;-64
2023/01/14 01:07:48;;;;;;;72.67;31.77;;;0.70;99.90;;;;;;4229877;28;20609;-69
2023/01/14 01:09:49;;;;;;;68.33;30.73;;;0.70;99.90;;;;;;4228978;28;20620;-61
2023/01/14 01:11:54;;;;;;;71.50;30.90;;;0.70;99.90;;;;;;4229368;28;20651;-62
2023/01/14 01:13:57;;;;;;;69.17;31.60;;;0.80;99.90;;;;;;4229336;28;20658;-67
2023/01/14 01:16:02;;;;;;;70.97;30.20;;;0.80;99.90;;;;;;4229208;28;20264;-61
2023/01/14 01:18:04;;;;;;;75.93;28.90;;;0.80;99.90;;;;;;4229049;28;20288;-62
2023/01/14 01:20:06;;;;;;;68.53;29.27;;;0.70;99.90;;;;;;4228308;28;20816;-62
2023/01/14 01:22:07;;;;;;;69.40;28.17;;;0.70;99.90;;;;;;4229604;28;20309;-61
2023/01/14 01:24:09;;;;;;;66.10;28.13;;;0.70;99.90;;;;;;4228790;28;20345;-60
2023/01/14 01:26:16;;;;;;;73.63;27.63;;;0.70;99.90;;;;;;4229848;28;20268;-61
2023/01/14 01:28:17;;;;;;;76.20;29.93;;;0.60;99.90;;;;;;4228718;28;20268;-62
2023/01/14 01:30:18;;;;;;;64.43;24.33;;;0.60;99.90;;;;;;4229386;28;20317;-60
2023/01/14 01:32:20;;;;;;;65.17;24.53;;;0.60;99.90;;;;;;4228021;28;20694;-69
2023/01/14 01:34:21;;;;;;;82.23;24.20;;;0.60;99.90;;;;;;4228900;28;20272;-61
2023/01/14 01:36:24;;;;;;;68.37;24.03;;;0.50;99.90;;;;;;4228646;28;20800;-62
2023/01/14 01:38:26;;;;;;;70.53;22.43;;;0.50;99.90;;;;;;4229250;28;20662;-60
2023/01/14 01:40:29;;;;;;;55.10;21.27;;;0.50;99.90;;;;;;4228191;28;20271;-63
2023/01/14 01:42:33;;;;;;;62.87;21.37;;;0.50;99.90;;;;;;4229548;28;20264;-61
2023/01/14 01:44:34;;;;;;;51.20;20.07;;;0.50;99.90;;;;;;4227735;28;20321;-62
2023/01/14 01:46:37;;;;;;;47.77;19.30;;;0.50;99.90;;;;;;4229282;28;20256;-62
2023/01/14 01:48:43;;;;;;;43.70;20.30;;;0.50;99.90;;;;;;4228657;28;20309;-60
2023/01/14 01:50:48;;;;;;;46.03;20.47;;;0.50;99.90;;;;;;4229111;28;20313;-69
2023/01/14 01:52:50;;;;;;;43.00;20.43;;;0.50;99.90;;;;;;4228478;28;20245;-62
2023/01/14 01:55:02;;;;;;;44.60;20.47;;;0.50;99.90;;;;;;4228711;28;20325;-62
2023/01/14 01:57:07;;;;;;;52.87;20.67;;;0.60;99.90;;;;;;4228494;28;20311;-61
2023/01/14 01:59:11;;;;;;;59.10;21.17;;;0.50;99.90;;;;;;4228533;28;20296;-62
2023/01/14 02:01:13;;;;;;;69.53;21.73;;;0.50;99.90;;;;;;4228566;28;20256;-65
2023/01/14 02:03:20;;;;;;;57.23;22.57;;;0.40;99.90;;;;;;4226739;28;20313;-60
2023/01/14 02:05:22;;;;;;;55.37;22.23;;;0.30;99.90;;;;;;4229222;28;20663;-59
2023/01/14 02:07:25;;;;;;;52.43;20.00;;;0.20;99.90;;;;;;4227891;28;20691;-61
2023/01/14 02:09:27;;;;;;;46.73;20.80;;;0.20;99.90;;;;;;4229091;28;20276;-61
2023/01/14 02:11:33;;;;;;;62.87;20.27;;;0.20;99.90;;;;;;4227679;28;20276;-61
2023/01/14 02:13:57;;;;;;;70.63;21.40;;;0.20;99.90;;;;;;4228524;28;20284;-56
2023/01/14 02:16:23;;;;;;;58.30;18.90;;;0.20;99.90;;;;;;4227804;28;20264;-60
2023/01/14 02:18:27;;;;;;;57.87;18.30;;;0.30;99.90;;;;;;4211673;28;20288;-60
2023/01/14 02:20:46;;;;;;;82.93;18.60;;;0.30;99.90;;;;;;4211096;28;20654;-63
2023/01/14 02:23:08;;;;;;;46.83;17.97;;;0.30;99.90;;;;;;4211773;28;20302;-60
2023/01/14 02:25:26;;;;;;;52.33;18.20;;;0.30;99.90;;;;;;4209784;28;20260;-58
2023/01/14 02:27:44;;;;;;;51.30;18.37;;;0.30;99.90;;;;;;4211203;28;20306;-59
2023/01/14 02:30:08;;;;;;;50.20;18.70;;;0.40;99.90;;;;;;4211600;28;20752;-59
2023/01/14 02:32:14;;;;;;;48.67;17.90;;;0.40;99.90;;;;;;4198244;28;20309;-60
2023/01/14 02:34:43;;;;;;;60.67;18.13;;;0.50;99.90;;;;;;4211924;28;20360;-58
2023/01/14 02:37:26;;;;;;;56.20;18.87;;;0.40;99.90;;;;;;4226351;28;20685;-63
2023/01/14 02:39:29;;;;;;;59.80;20.70;;;0.50;99.90;;;;;;4191708;28;20301;-61
2023/01/14 02:44:12;;;;;;;45.83;18.07;;;0.50;99.90;;;;;;4211772;28;20338;-59
2023/01/14 02:46:22;;;;;;;41.80;15.87;;;0.50;99.90;;;;;;4210382;28;20594;-59
2023/01/14 02:48:25;;;;;;;45.28;16.45;;;0.60;99.90;;;;;;4211758;28;20338;-61
2023/01/14 02:50:28;;;;;;;42.17;17.40;;;0.60;99.90;;;;;;4210664;28;20032;-61
2023/01/14 02:52:29;;;;;;;45.93;17.50;;;0.60;99.90;;;;;;4211340;28;20269;-60
2023/01/14 02:54:31;;;;;;;45.40;16.53;;;0.60;99.90;;;;;;4210061;28;20306;-60
2023/01/14 02:56:33;;;;;;;42.17;15.13;;;0.60;99.90;;;;;;4211746;28;20269;-61
2023/01/14 02:58:56;;;;;;;38.67;17.47;;;0.60;99.90;;;;;;4208995;28;20289;-60
2023/01/14 03:01:15;;;;;;;39.90;15.27;;;0.60;99.90;;;;;;4211900;28;20349;-65
2023/01/14 03:04:01;;;;;;;33.20;14.57;;;0.60;99.90;;;;;;4223250;28;20279;-60
2023/01/14 03:06:23;;;;;;;40.60;15.07;;;0.60;99.90;;;;;;4206405;28;20265;-58
2023/01/14 03:08:36;;;;;;;40.07;15.03;;;0.60;99.90;;;;;;4210940;28;20257;-61
2023/01/14 03:10:49;;;;;;;39.53;15.33;;;0.60;99.90;;;;;;4210828;28;20245;-68
2023/01/14 03:12:53;;;;;;;39.60;15.23;;;0.60;99.90;;;;;;4210928;28;20318;-61
2023/01/14 03:14:59;;;;;;;31.80;14.47;;;0.60;99.90;;;;;;4210708;28;20306;-66
2023/01/14 03:17:26;;;;;;;44.03;15.57;;;0.60;99.90;;;;;;4218069;28;20667;-61
2023/01/14 03:19:36;;;;;;;38.70;16.43;;;0.70;99.90;;;;;;4226920;28;20689;-69
2023/01/14 03:21:42;;;;;;;39.10;15.90;;;0.70;99.90;;;;;;4227845;28;20325;-61
2023/01/14 03:23:49;;;;;;;40.23;16.10;;;0.80;99.90;;;;;;4226045;28;20666;-61
2023/01/14 03:25:53;;;;;;;37.83;16.17;;;0.80;99.90;;;;;;4227665;28;20333;-67
2023/01/14 03:27:57;;;;;;;41.53;18.47;;;0.80;99.90;;;;;;4227464;28;20309;-67
2023/01/14 03:30:05;;;;;;;48.03;17.70;;;0.80;99.90;;;;;;4226903;28;20353;-61
2023/01/14 03:32:15;;;;;;;44.73;16.67;;;0.70;99.90;;;;;;4227296;28;20724;-64
2023/01/14 03:34:21;;;;;;;48.60;17.20;;;0.60;99.90;;;;;;4227197;28;20693;-61
2023/01/14 03:36:24;;;;;;;43.50;16.07;;;0.60;99.90;;;;;;4227785;28;20669;-63
2023/01/14 03:38:38;;;;;;;40.63;15.63;;;0.60;99.90;;;;;;4226699;28;20682;-61
2023/01/14 03:40:42;;;;;;;44.73;17.27;;;0.60;99.90;;;;;;4226551;28;20276;-64
2023/01/14 03:42:49;;;;;;;50.23;17.33;;;0.60;99.90;;;;;;4227091;28;20360;-61
2023/01/14 03:45:12;;;;;;;41.03;16.20;;;0.60;99.90;;;;;;4231173;28;20276;-61
2023/01/14 03:47:14;;;;;;;50.53;20.30;;;0.50;99.90;;;;;;4230351;28;20305;-62
2023/01/14 03:49:15;;;;;;;46.63;19.67;;;0.60;99.90;;;;;;4230856;28;20306;-60
2023/01/14 03:51:30;;;;;;;56.67;20.60;;;0.60;99.90;;;;;;4230088;28;20272;-61
2023/01/14 03:53:59;;;;;;;55.47;21.60;;;0.70;99.90;;;;;;4230795;28;20317;-61
2023/01/14 03:56:22;;;;;;;48.30;19.27;;;0.70;99.90;;;;;;4213832;28;20813;-60
2023/01/14 03:58:45;;;;;;;52.23;19.00;;;0.80;99.90;;;;;;4213343;28;20827;-60
2023/01/14 04:00:55;;;;;;;43.50;17.20;;;0.80;99.90;;;;;;4224294;28;20840;-64
2023/01/14 04:03:00;;;;;;;49.83;17.17;;;0.80;99.90;;;;;;4229573;28;20272;-59
2023/01/14 04:05:01;;;;;;;42.93;16.60;;;0.90;99.90;;;;;;4231391;28;20329;-60
2023/01/14 04:07:03;;;;;;;48.77;17.03;;;0.90;99.90;;;;;;4230022;28;20268;-62
2023/01/14 04:09:05;;;;;;;51.80;19.57;;;1.00;99.90;;;;;;4230657;28;20268;-60
2023/01/14 04:11:08;;;;;;;44.30;17.73;;;1.00;99.90;;;;;;4230022;28;20317;-60
2023/01/14 04:15:32;;;;;;;42.10;16.23;;;1.10;99.90;;;;;;4230348;28;20309;-60
2023/01/14 04:17:37;;;;;;;41.33;16.27;;;1.20;99.90;;;;;;4229677;28;20670;-61
2023/01/14 04:19:38;;;;;;;38.17;16.87;;;1.20;99.90;;;;;;4230307;28;20288;-60
2023/01/14 04:21:40;;;;;;;41.93;17.40;;;1.20;99.90;;;;;;4229494;28;20767;-59
2023/01/14 04:23:41;;;;;;;53.60;18.20;;;1.20;99.90;;;;;;4230591;28;20708;-60
2023/01/14 04:25:42;;;;;;;47.70;18.03;;;1.20;99.90;;;;;;4229392;28;20263;-60
2023/01/14 04:27:43;;;;;;;70.67;21.13;;;1.10;99.90;;;;;;4230675;28;20260;-60
2023/01/14 04:29:44;;;;;;;61.03;19.30;;;1.00;99.90;;;;;;4229402;28;20728;-60
2023/01/14 04:31:45;;;;;;;53.63;19.13;;;0.90;99.90;;;;;;4230702;28;20356;-61
2023/01/14 04:33:46;;;;;;;71.13;23.03;;;0.90;99.90;;;;;;4229408;28;20276;-59
2023/01/14 04:35:49;;;;;;;64.27;18.63;;;0.90;99.90;;;;;;4230910;28;20280;-60
2023/01/14 04:37:51;;;;;;;74.00;18.40;;;0.80;99.90;;;;;;4227929;28;20272;-60
2023/01/14 04:39:52;;;;;;;79.17;18.07;;;0.70;99.90;;;;;;4230560;28;20776;-60
2023/01/14 04:44:13;;;;;;;51.97;18.37;;;0.70;99.90;;;;;;4230000;28;20318;-60
2023/01/14 04:46:14;;;;;;;50.97;18.53;;;0.70;99.90;;;;;;4229286;28;20260;-60
2023/01/14 04:48:16;;;;;;;47.80;18.07;;;0.60;99.90;;;;;;4230311;28;20585;-61
2023/01/14 04:50:37;;;;;;;48.53;17.30;;;0.70;99.90;;;;;;4229136;28;20325;-61
2023/01/14 04:52:38;;;;;;;46.73;18.87;;;0.70;99.90;;;;;;4230178;28;20317;-60
2023/01/14 04:54:39;;;;;;;47.07;17.67;;;0.80;99.90;;;;;;4228558;28;20253;-63
2023/01/14 04:56:40;;;;;;;48.33;19.17;;;0.80;99.90;;;;;;4229597;28;20264;-61
2023/01/14 04:58:41;;;;;;;52.03;19.23;;;0.90;99.90;;;;;;4229373;28;20256;-61
2023/01/14 05:00:44;;;;;;;51.40;19.60;;;0.90;99.90;;;;;;4229256;28;20268;-61
2023/01/14 05:02:45;;;;;;;43.23;18.30;;;0.90;99.90;;;;;;4229786;28;20716;-60
2023/01/14 05:04:46;;;;;;;62.77;21.03;;;0.90;99.90;;;;;;4229061;28;20305;-60
2023/01/14 05:06:47;;;;;;;59.90;21.03;;;1.00;99.90;;;;;;4229942;28;20264;-61
2023/01/14 05:08:48;;;;;;;54.10;21.33;;;1.00;99.90;;;;;;4228808;28;20271;-61
2023/01/14 05:10:49;;;;;;;72.53;20.77;;;1.00;99.90;;;;;;4229742;28;20268;-63
2023/01/14 05:12:57;;;;;;;72.00;23.57;;;1.00;99.90;;;;;;4228923;28;20264;-60
2023/01/14 05:14:58;;;;;;;62.47;21.40;;;0.90;99.90;;;;;;4229923;28;20732;-59
2023/01/14 05:16:59;;;;;;;77.07;22.63;;;0.90;99.90;;;;;;4228517;28;20260;-60
2023/01/14 05:19:00;;;;;;;61.50;22.50;;;0.80;99.90;;;;;;4229572;28;20747;-61
2023/01/14 05:21:01;;;;;;;60.50;21.20;;;0.80;99.90;;;;;;4228475;28;20364;-60
2023/01/14 05:23:11;;;;;;;81.13;22.83;;;0.90;99.90;;;;;;4229888;28;20300;-60
2023/01/14 05:25:12;;;;;;;90.40;22.47;;;0.90;99.90;;;;;;4228554;28;20313;-58
2023/01/14 05:27:13;;;;;;;94.53;23.43;;;0.90;99.90;;;;;;4229203;28;20272;-61
2023/01/14 05:29:15;;;;;;;114.30;25.73;;;0.80;99.90;;;;;;4228005;28;20695;-61
2023/01/14 05:31:16;;;;;;;69.53;21.33;;;0.80;99.90;;;;;;4229172;28;20341;-61
2023/01/14 05:33:17;;;;;;;63.97;22.83;;;0.80;99.90;;;;;;4229055;28;20309;-60
2023/01/14 05:35:18;;;;;;;59.83;22.60;;;0.80;99.90;;;;;;4229280;28;21128;-61
2023/01/14 05:37:19;;;;;;;59.87;21.13;;;0.90;99.90;;;;;;4229308;28;20260;-60
2023/01/14 05:39:20;;;;;;;72.37;23.63;;;0.90;99.90;;;;;;4228422;28;20296;-61
2023/01/14 05:41:22;;;;;;;73.17;25.83;;;0.90;99.90;;;;;;4229081;28;20260;-63
2023/01/14 05:45:51;;;;;;;65.17;23.60;;;0.90;99.90;;;;;;4228607;28;20341;-60
2023/01/14 05:47:53;;;;;;;79.97;27.35;;;1.00;99.90;;;;;;4224602;28;20352;-58
2023/01/14 05:49:54;;;;;;;61.63;25.43;;;1.00;99.90;;;;;;4229552;28;20080;-61
2023/01/14 05:51:56;;;;;;;81.70;27.13;;;1.00;99.90;;;;;;4228040;28;20268;-60
2023/01/14 05:53:57;;;;;;;74.00;25.83;;;1.00;99.90;;;;;;4229294;28;20260;-61
2023/01/14 05:55:59;;;;;;;67.10;24.47;;;1.00;99.90;;;;;;4227866;28;20767;-61
2023/01/14 05:58:02;;;;;;;135.90;28.50;;;1.00;99.90;;;;;;4229154;28;20314;-61
2023/01/14 06:00:04;;;;;;;62.93;24.03;;;1.00;99.90;;;;;;4227740;28;20309;-61
2023/01/14 06:06:50;;;;;;;73.40;24.47;;;0.90;99.90;;;;;;4212376;28;20817;-62
2023/01/14 06:08:58;;;;;;;69.27;25.97;;;1.00;99.90;;;;;;4210964;28;20261;-62
2023/01/14 06:11:00;;;;;;;66.33;23.47;;;1.00;99.90;;;;;;4210391;28;20272;-61
2023/01/14 06:13:06;;;;;;;67.57;24.23;;;0.90;99.90;;;;;;4218197;28;20317;-66
2023/01/14 06:15:08;;;;;;;57.57;22.60;;;1.00;99.90;;;;;;4228726;28;20325;-63
2023/01/14 06:17:09;;;;;;;66.77;24.93;;;0.90;99.90;;;;;;4227233;28;20276;-65
2023/01/14 06:19:13;;;;;;;62.20;23.03;;;0.90;99.90;;;;;;4228080;28;20325;-62
2023/01/14 06:21:19;;;;;;;65.40;24.67;;;1.00;99.90;;;;;;4226874;28;20283;-61
2023/01/14 06:23:21;;;;;;;79.73;25.00;;;1.00;99.90;;;;;;4211627;28;20268;-61
2023/01/14 06:25:22;;;;;;;78.20;27.80;;;1.00;99.90;;;;;;4211052;28;20268;-61
2023/01/14 06:27:23;;;;;;;74.53;25.83;;;1.00;99.90;;;;;;4227530;28;20276;-65
2023/01/14 06:29:24;;;;;;;82.80;26.13;;;1.10;99.90;;;;;;4227582;28;20268;-60
2023/01/14 06:31:26;;;;;;;77.43;24.13;;;1.00;99.90;;;;;;4227316;28;20256;-61
2023/01/14 06:33:27;;;;;;;71.30;22.63;;;1.00;99.90;;;;;;4228673;28;20333;-61
2023/01/14 06:35:28;;;;;;;120.50;24.97;;;1.00;99.90;;;;;;4227915;28;20284;-61
2023/01/14 06:37:29;;;;;;;74.43;23.70;;;1.00;99.90;;;;;;4228457;28;20260;-60
2023/01/14 06:39:30;;;;;;;71.97;22.77;;;1.10;99.90;;;;;;4227114;28;20292;-60
2023/01/14 06:41:32;;;;;;;67.43;21.50;;;1.00;99.90;;;;;;4228446;28;20738;-60
2023/01/14 06:43:34;;;;;;;79.63;24.40;;;1.10;99.90;;;;;;4226938;28;20321;-61
2023/01/14 06:45:35;;;;;;;71.90;23.83;;;1.10;99.90;;;;;;4228412;28;20731;-61
2023/01/14 06:47:36;;;;;;;66.53;21.53;;;1.00;99.90;;;;;;4227113;28;20256;-61
2023/01/14 06:49:38;;;;;;;68.97;22.30;;;1.10;99.90;;;;;;4228547;28;20730;-60
2023/01/14 06:51:40;;;;;;;78.50;22.00;;;1.10;99.90;;;;;;4226808;28;20325;-60
2023/01/14 06:53:42;;;;;;;73.80;24.63;;;1.10;99.90;;;;;;4227969;28;20253;-61
2023/01/14 06:55:43;;;;;;;78.87;24.57;;;1.10;99.90;;;;;;4226130;28;20268;-62
2023/01/14 06:57:45;;;;;;;76.17;23.37;;;1.20;99.90;;;;;;4227153;28;20325;-63
2023/01/14 06:59:46;;;;;;;85.63;22.60;;;1.10;99.90;;;;;;4227288;28;20288;-61
2023/01/14 07:01:47;;;;;;;84.73;22.33;;;1.10;99.90;;;;;;4226667;28;20287;-60
2023/01/14 07:03:49;;;;;;;67.97;22.80;;;1.20;99.90;;;;;;4227215;28;20721;-62
2023/01/14 07:05:50;;;;;;;97.23;22.73;;;1.10;99.90;;;;;;4226973;28;20260;-58
2023/01/14 07:07:53;;;;;;;73.77;24.03;;;1.10;99.90;;;;;;4227966;28;20736;-63
2023/01/14 07:09:54;;;;;;;75.27;22.37;;;1.10;99.90;;;;;;4226483;28;20268;-61
2023/01/14 07:11:55;;;;;;;60.70;21.30;;;1.10;99.90;;;;;;4227330;28;20248;-61
2023/01/14 07:13:56;;;;;;;67.80;20.70;;;1.10;99.90;;;;;;4226253;28;20256;-62
2023/01/14 07:15:57;;;;;;;62.70;21.47;;;1.10;99.90;;;;;;4227610;28;20252;-62
2023/01/14 07:17:58;;;;;;;64.43;21.33;;;1.10;99.90;;;;;;4225065;28;20396;-62
2023/01/14 07:20:00;;;;;;;82.93;24.57;;;1.20;99.90;;;;;;4227678;28;20329;-60
2023/01/14 07:22:01;;;;;;;72.13;26.03;;;1.20;99.90;;;;;;4225753;28;20264;-60
2023/01/14 07:24:02;;;;;;;126.53;30.53;;;1.30;99.90;;;;;;4226978;28;20268;-60
2023/01/14 07:26:03;;;;;;;93.57;27.43;;;1.30;99.90;;;;;;4226237;28;20268;-60
2023/01/14 07:28:04;;;;;;;73.07;25.10;;;1.30;99.90;;;;;;4226916;28;20268;-60
2023/01/14 07:30:06;;;;;;;70.10;25.03;;;1.30;99.90;;;;;;4226354;28;20248;-60
2023/01/14 07:32:07;;;;;;;62.30;23.80;;;1.30;99.90;;;;;;4227025;28;20312;-63
2023/01/14 07:34:09;;;;;;;80.07;24.13;;;1.30;99.90;;;;;;4227284;28;20272;-61
2023/01/14 07:36:10;;;;;;;64.33;24.63;;;1.40;99.90;;;;;;4226498;28;20268;-59
2023/01/14 07:38:11;;;;;;;69.70;23.87;;;1.30;99.90;;;;;;4227422;28;20325;-61
2023/01/14 07:40:12;;;;;;;73.47;23.80;;;1.40;99.90;;;;;;4226431;28;20357;-61
2023/01/14 07:42:17;;;;;;;65.03;25.17;;;1.50;99.90;;;;;;4227405;28;20317;-61
2023/01/14 07:44:23;;;;;;;74.60;27.50;;;1.60;99.90;;;;;;4225963;28;20334;-60
2023/01/14 07:46:24;;;;;;;58.73;22.50;;;1.60;99.90;;;;;;4227195;28;20275;-66
2023/01/14 07:48:26;;;;;;;59.20;21.37;;;1.70;99.90;;;;;;4226019;28;20326;-63
2023/01/14 07:50:28;;;;;;;48.47;19.57;;;1.70;99.90;;;;;;4226714;28;20276;-62
2023/01/14 07:52:29;;;;;;;50.97;19.17;;;1.70;99.90;;;;;;4225977;28;20284;-61
2023/01/14 07:54:30;;;;;;;54.33;20.63;;;1.80;99.90;;;;;;4226954;28;20276;-62
2023/01/14 07:56:32;;;;;;;46.63;19.73;;;1.80;99.90;;;;;;4225764;28;20392;-61
2023/01/14 07:58:33;;;;;;;50.10;19.83;;;1.90;99.90;;;;;;4227062;28;20816;-62
2023/01/14 08:00:34;;;;;;;44.53;19.27;;;2.00;99.90;;;;;;4225859;28;20354;-62
2023/01/14 08:02:36;;;;;;;42.07;18.17;;;2.00;99.90;;;;;;4226483;28;20309;-62
2023/01/14 08:04:37;;;;;;;50.60;20.17;;;2.10;99.90;;;;;;4225886;28;20661;-62
2023/01/14 08:06:39;;;;;;;41.73;17.70;;;2.20;99.90;;;;;;4226261;28;20329;-62
2023/01/14 08:08:40;;;;;;;42.83;17.23;;;2.20;99.90;;;;;;4227038;28;20332;-63
2023/01/14 08:10:41;;;;;;;46.37;17.67;;;2.30;99.90;;;;;;4225102;28;20280;-62
2023/01/14 08:12:42;;;;;;;40.57;18.37;;;2.30;99.90;;;;;;4226920;28;20345;-62
2023/01/14 08:14:43;;;;;;;41.30;18.37;;;2.20;99.90;;;;;;4225338;28;20256;-62
2023/01/14 08:16:44;;;;;;;43.73;18.50;;;2.20;99.90;;;;;;4227210;28;20256;-61
2023/01/14 08:18:45;;;;;;;61.27;22.30;;;2.20;99.90;;;;;;4225734;28;20260;-61
2023/01/14 08:20:46;;;;;;;53.43;23.37;;;2.20;99.90;;;;;;4226553;28;20353;-62
2023/01/14 08:22:48;;;;;;;64.87;25.97;;;2.10;99.90;;;;;;4226022;28;20286;-61
2023/01/14 08:24:50;;;;;;;57.40;24.60;;;2.10;99.90;;;;;;4227210;28;20272;-62
2023/01/14 08:26:51;;;;;;;55.87;25.07;;;2.10;99.90;;;;;;4225824;28;20264;-62
2023/01/14 08:28:52;;;;;;;60.50;28.37;;;2.10;99.90;;;;;;4226546;28;20276;-62
2023/01/14 08:31:11;;;;;;;59.47;27.13;;;2.20;99.90;;;;;;4227433;28;20667;-63
2023/01/14 08:33:12;;;;;;;41.70;21.40;;;2.30;99.90;;;;;;4230014;28;20272;-65
2023/01/14 08:35:13;;;;;;;43.63;19.23;;;2.30;99.90;;;;;;4229285;28;20338;-60
2023/01/14 08:37:14;;;;;;;43.67;19.03;;;2.30;99.90;;;;;;4229961;28;20252;-63
2023/01/14 08:39:16;;;;;;;39.63;17.73;;;2.30;99.90;;;;;;4229438;28;20333;-64
2023/01/14 08:41:18;;;;;;;36.80;17.43;;;2.40;99.90;;;;;;4229320;28;20325;-61
2023/01/14 08:43:20;;;;;;;38.03;17.53;;;2.40;99.90;;;;;;4229700;28;20264;-62
2023/01/14 08:45:21;;;;;;;36.07;16.60;;;2.40;99.90;;;;;;4228852;28;20264;-60
2023/01/14 08:47:22;;;;;;;42.13;17.47;;;2.50;99.90;;;;;;4229927;28;20326;-60
2023/01/14 08:49:24;;;;;;;39.93;16.97;;;2.60;99.90;;;;;;4228991;28;20275;-61
2023/01/14 08:51:28;;;;;;;33.50;16.57;;;2.60;99.90;;;;;;4227618;28;20272;-64
2023/01/14 08:53:30;;;;;;;32.13;16.13;;;2.70;99.90;;;;;;4228633;27;20322;-65
2023/01/14 08:55:31;;;;;;;34.20;15.80;;;2.90;99.90;;;;;;4229320;28;20768;-66
2023/01/14 08:57:32;;;;;;;40.03;17.00;;;3.00;99.90;;;;;;4227727;28;20275;-61
2023/01/14 08:59:33;;;;;;;35.40;16.13;;;3.10;99.90;;;;;;4229209;28;20546;-63
2023/01/14 09:01:34;;;;;;;33.57;16.13;;;3.20;99.90;;;;;;4228501;28;20281;-62
2023/01/14 09:03:36;;;;;;;33.33;15.47;;;3.30;99.90;;;;;;4229901;28;20337;-65
2023/01/14 09:05:38;;;;;;;38.83;17.77;;;3.40;99.90;;;;;;4228459;28;20276;-63
2023/01/14 09:17:09;;;;;;;31.20;15.33;;;3.80;99.90;;;;;;4228950;28;20116;-65
2023/01/14 09:19:11;;;;;;;35.63;15.77;;;3.90;99.90;;;;;;4228282;28;20248;-65
2023/01/14 09:21:12;;;;;;;30.87;14.20;;;3.90;99.90;;;;;;4228792;28;20333;-64
2023/01/14 09:23:13;;;;;;;29.13;15.17;;;3.90;99.90;;;;;;4228061;28;20348;-61
2023/01/14 09:25:14;;;;;;;33.23;15.23;;;3.90;99.90;;;;;;4229180;28;20317;-62
2023/01/14 09:27:17;;;;;;;45.60;35.93;;;3.90;99.90;;;;;;4227840;28;20256;-61
2023/01/14 09:29:18;;;;;;;34.53;17.40;;;4.00;99.90;;;;;;4223220;28;20287;-62
2023/01/14 09:31:19;;;;;;;35.80;17.47;;;4.00;99.90;;;;;;4227524;28;20260;-63
2023/01/14 09:33:20;;;;;;;41.03;18.33;;;4.00;99.90;;;;;;4228273;28;20369;-59
2023/01/14 09:35:22;;;;;;;42.90;21.23;;;3.90;99.90;;;;;;4227209;28;20280;-61
2023/01/14 09:37:24;;;;;;;42.40;22.03;;;4.00;99.90;;;;;;4228829;28;20264;-60
2023/01/14 09:39:25;;;;;;;47.40;22.30;;;4.00;99.90;;;;;;4227163;28;20280;-62
2023/01/14 09:41:30;;;;;;;45.50;22.10;;;3.90;99.90;;;;;;4226966;28;20295;-62
2023/01/14 09:43:31;;;;;;;44.93;22.03;;;3.90;99.90;;;;;;4227689;28;20288;-61
2023/01/14 09:45:34;;;;;;;58.00;26.47;;;3.70;99.90;;;;;;4227148;28;20755;-64
2023/01/14 09:47:35;;;;;;;57.23;25.80;;;3.70;99.90;;;;;;4229176;28;20313;-65
2023/01/14 09:49:36;;;;;;;55.67;25.90;;;3.50;99.90;;;;;;4227624;28;20325;-62
2023/01/14 09:51:53;;;;;;;61.27;26.93;;;3.50;99.90;;;;;;4228268;28;20800;-61
2023/01/14 09:53:54;;;;;;;55.73;25.90;;;3.40;99.90;;;;;;4227639;28;20411;-62
2023/01/14 09:56:16;;;;;;;65.47;27.53;;;3.30;99.90;;;;;;4229015;28;20260;-62
2023/01/14 09:58:36;;;;;;;58.30;27.60;;;3.40;99.90;;;;;;4227494;28;20272;-60
2023/01/14 10:00:56;;;;;;;60.00;27.67;;;3.40;99.90;;;;;;4227773;28;20308;-59
2023/01/14 10:03:24;;;;;;;59.87;27.47;;;3.30;99.90;;;;;;4226048;28;20288;-60
2023/01/14 10:05:32;;;;;;;57.40;26.23;;;3.30;99.90;;;;;;4228441;28;20813;-60
2023/01/14 10:07:34;;;;;;;57.73;27.07;;;3.40;99.90;;;;;;4227916;28;20316;-62
2023/01/14 10:09:50;;;;;;;58.10;26.40;;;3.40;99.90;;;;;;4228165;28;20280;-59
2023/01/14 10:11:52;;;;;;;71.13;27.60;;;3.30;99.90;;;;;;4227112;28;20256;-56
2023/01/14 10:14:10;;;;;;;56.93;25.93;;;3.40;99.90;;;;;;4228164;28;20333;-59
2023/01/14 10:16:27;;;;;;;70.00;27.23;;;3.40;99.90;;;;;;4226352;28;20325;-59
2023/01/14 10:18:38;;;;;;;69.53;28.40;;;3.50;99.90;;;;;;4227895;28;20400;-64
2023/01/14 10:20:56;;;;;;;55.33;26.23;;;3.50;99.90;;;;;;4227166;28;20295;-60
2023/01/14 10:23:08;;;;;;;57.63;26.23;;;3.70;99.90;;;;;;4227809;28;20309;-60
2023/01/14 10:25:18;;;;;;;56.47;25.03;;;3.70;99.90;;;;;;4224750;28;20333;-65
2023/01/14 10:27:20;;;;;;;67.80;26.08;;;3.80;99.90;;;;;;4226604;28;20612;-62
2023/01/14 10:29:23;;;;;;;52.13;24.03;;;3.80;99.90;;;;;;4227079;28;20036;-64
2023/01/14 10:31:32;;;;;;;55.67;23.50;;;3.80;99.90;;;;;;4226237;28;20305;-58
2023/01/14 10:33:33;;;;;;;50.03;22.83;;;3.90;99.90;;;;;;4226871;28;20305;-62
2023/01/14 10:35:38;;;;;;;59.10;26.60;;;3.90;99.90;;;;;;4227308;28;20352;-62
2023/01/14 10:37:39;;;;;;;55.07;25.07;;;4.00;99.90;;;;;;4227364;28;20662;-62
2023/01/14 10:39:48;;;;;;;56.43;24.37;;;4.10;99.90;;;;;;4227892;28;20276;-62
2023/01/14 10:41:50;;;;;;;53.07;23.60;;;4.10;99.90;;;;;;4227014;28;20838;-62
2023/01/14 10:43:51;;;;;;;53.00;24.77;;;4.10;99.90;;;;;;4227911;28;20287;-60
2023/01/14 10:45:52;;;;;;;54.87;25.20;;;4.10;99.90;;;;;;4226510;28;20275;-63
2023/01/14 10:47:56;;;;;;;56.67;24.77;;;4.20;99.90;;;;;;4226782;28;20272;-61
2023/01/14 10:50:01;;;;;;;63.07;27.17;;;4.20;99.90;;;;;;4226261;28;20337;-62
2023/01/14 10:52:21;;;;;;;92.37;38.80;;;4.30;99.90;;;;;;4226636;28;20759;-61
2023/01/14 10:54:24;;;;;;;50.10;23.23;;;4.50;99.90;;;;;;4225924;28;20388;-60
2023/01/14 10:56:27;;;;;;;101.63;46.73;;;4.60;99.90;;;;;;4226991;28;20272;-61
2023/01/14 10:58:35;;;;;;;73.57;36.17;;;4.80;99.90;;;;;;4225876;28;20333;-61
2023/01/14 11:00:50;;;;;;;58.63;27.63;;;4.90;99.90;;;;;;4226181;28;20288;-61
2023/01/14 11:02:51;;;;;;;45.83;23.97;;;5.00;99.90;;;;;;4225950;28;20259;-61